Time;durP1;ratioP1;P1;durP2;ratioP2;P2;SDS_P1;SDS_P2;PMS_P1;PMS_P2;Temp;Humidity;BMP_temperature;BMP_pressure;BME280_temperature;BME280_humidity;BME280_pressure;Samples;Min_cycle;Max_cycle;Signal;HPM_P1;HPM_P2
2021/06/08 00:00:34;;;;;;;8.80;7.82;;;;;;;17.33;67.13;99395.19;4970539;28;20058;-59
2021/06/08 00:03:01;;;;;;;10.85;7.90;;;;;;;17.41;66.46;99394.28;4971679;28;20050;-59
2021/06/08 00:05:27;;;;;;;10.93;7.70;;;;;;;17.30;66.76;99398.25;4980164;28;20040;-59
2021/06/08 00:07:52;;;;;;;10.00;7.30;;;;;;;17.36;66.48;99386.69;4972774;28;20129;-59
2021/06/08 00:10:19;;;;;;;9.25;7.63;;;;;;;17.43;66.40;99401.19;4975733;28;20039;-58
2021/06/08 00:12:45;;;;;;;10.38;7.25;;;;;;;17.36;66.63;99406.50;4975678;28;20493;-59
2021/06/08 00:15:11;;;;;;;11.68;7.68;;;;;;;17.24;66.87;99405.19;4971131;28;20045;-58
2021/06/08 00:17:36;;;;;;;9.65;7.82;;;;;;;17.15;67.01;99403.56;4968782;28;20068;-58
2021/06/08 00:20:04;;;;;;;9.82;7.80;;;;;;;16.98;67.18;99360.38;4970755;28;20114;-59
2021/06/08 00:22:30;;;;;;;9.48;7.70;;;;;;;16.98;67.65;99371.19;4969800;28;20039;-57
2021/06/08 00:24:57;;;;;;;10.65;7.90;;;;;;;16.81;68.07;99375.81;4969523;28;20122;-57
2021/06/08 00:27:22;;;;;;;9.57;7.60;;;;;;;16.75;68.21;99371.94;4969501;28;20323;-56
2021/06/08 00:29:48;;;;;;;9.30;7.10;;;;;;;16.92;68.24;99383.53;4976656;28;20498;-59
2021/06/08 00:32:14;;;;;;;7.85;6.90;;;;;;;16.86;68.42;99383.38;4978954;28;20038;-54
2021/06/08 00:34:39;;;;;;;8.02;7.25;;;;;;;16.86;68.38;99384.22;4990300;28;20561;-58
2021/06/08 00:37:05;;;;;;;8.82;7.70;;;;;;;16.72;68.60;99369.59;4973841;28;20599;-59
2021/06/08 00:39:30;;;;;;;8.30;7.50;;;;;;;16.76;68.88;99387.16;4987110;28;20034;-58
2021/06/08 00:41:56;;;;;;;12.15;7.93;;;;;;;16.48;68.53;99338.09;4980022;28;20042;-59
2021/06/08 00:44:21;;;;;;;9.30;7.35;;;;;;;16.78;68.76;99390.50;4975963;28;20039;-59
2021/06/08 00:46:47;;;;;;;10.50;8.00;;;;;;;16.73;68.79;99401.00;4976227;28;20041;-56
2021/06/08 00:49:14;;;;;;;11.35;7.90;;;;;;;16.63;69.03;99386.84;4976428;28;20142;-57
2021/06/08 00:51:40;;;;;;;10.93;7.70;;;;;;;16.74;68.96;99394.59;4975609;28;20050;-56
2021/06/08 00:54:07;;;;;;;10.55;7.78;;;;;;;16.64;69.20;99410.19;4976011;28;20042;-59
2021/06/08 00:56:34;;;;;;;8.57;7.60;;;;;;;16.67;69.32;99409.81;4980617;28;20453;-56
2021/06/08 00:59:00;;;;;;;8.18;7.20;;;;;;;16.57;69.53;99388.41;4979193;28;20117;-56
2021/06/08 01:01:25;;;;;;;9.90;7.40;;;;;;;16.59;69.25;99393.63;4988285;28;20038;-59
2021/06/08 01:03:51;;;;;;;9.52;7.68;;;;;;;16.57;69.42;99388.41;4975313;28;20038;-55
2021/06/08 01:06:16;;;;;;;9.50;7.43;;;;;;;16.61;69.30;99399.69;4974700;28;20045;-58
2021/06/08 01:08:42;;;;;;;10.80;8.25;;;;;;;16.56;69.35;99393.97;4975017;28;20030;-54
2021/06/08 01:11:08;;;;;;;11.85;7.95;;;;;;;16.57;69.20;99392.94;5006660;28;20105;-58
2021/06/08 01:13:34;;;;;;;10.10;7.50;;;;;;;16.65;69.57;99404.59;4977848;28;20114;-57
2021/06/08 01:15:59;;;;;;;9.82;7.30;;;;;;;16.52;69.49;99393.50;4986530;28;20043;-58
2021/06/08 01:18:25;;;;;;;9.40;7.90;;;;;;;16.59;69.34;99399.03;4982959;28;20418;-57
2021/06/08 01:21:03;;;;;;;7.35;6.28;;;;;;;16.61;69.90;99408.66;4975046;28;20562;-58
2021/06/08 01:23:29;;;;;;;8.95;7.10;;;;;;;16.58;69.58;99419.81;4961524;28;20042;-57
2021/06/08 01:25:56;;;;;;;7.70;6.88;;;;;;;16.62;69.66;99417.59;4975353;28;20038;-61
2021/06/08 01:28:22;;;;;;;11.57;7.13;;;;;;;16.64;69.54;99413.72;4985641;28;20541;-57
2021/06/08 01:30:49;;;;;;;8.13;7.05;;;;;;;16.65;69.75;99410.00;4977280;28;20499;-57
2021/06/08 01:33:16;;;;;;;8.93;7.25;;;;;;;16.66;69.44;99413.53;4975323;28;20069;-59
2021/06/08 01:35:43;;;;;;;9.88;7.30;;;;;;;16.67;69.57;99409.81;4980391;28;20033;-57
2021/06/08 01:38:10;;;;;;;10.25;6.93;;;;;;;16.69;69.31;99407.78;4986042;28;20034;-58
2021/06/08 01:40:35;;;;;;;8.45;6.57;;;;;;;16.89;68.53;99408.22;4979441;28;20033;-57
2021/06/08 01:43:01;;;;;;;6.85;6.13;;;;;;;16.93;68.07;99409.53;4979200;28;20041;-59
2021/06/08 01:45:27;;;;;;;7.75;6.68;;;;;;;16.91;68.08;99405.34;4976294;28;20030;-55
2021/06/08 01:47:53;;;;;;;10.27;6.40;;;;;;;16.76;67.64;99397.97;4974537;28;20600;-59
2021/06/08 01:50:18;;;;;;;9.82;6.63;;;;;;;16.95;68.21;99412.09;4979638;28;20529;-54
2021/06/08 01:52:59;;;;;;;7.85;6.00;;;;;;;17.21;66.92;99419.09;4978284;28;20043;-54
2021/06/08 01:55:30;;;;;;;9.13;5.88;;;;;;;17.12;67.10;99412.00;4973329;28;20637;-53
2021/06/08 01:58:07;;;;;;;7.28;6.57;;;;;;;17.19;66.92;99418.44;4973756;28;20043;-58
2021/06/08 02:01:01;;;;;;;8.77;5.93;;;;;;;17.27;66.40;99410.25;4972828;28;20398;-56
2021/06/08 02:03:36;;;;;;;10.65;6.35;;;;;;;17.23;66.49;99406.22;4948359;28;20039;-60
2021/06/08 02:06:18;;;;;;;7.53;6.68;;;;;;;17.25;66.17;99401.47;4959299;28;20062;-58
2021/06/08 02:09:13;;;;;;;8.23;6.25;;;;;;;17.26;66.75;99405.03;4973176;28;20472;-56
2021/06/08 02:12:00;;;;;;;6.50;5.90;;;;;;;17.28;66.65;99397.59;4958397;28;20043;-59
2021/06/08 02:14:38;;;;;;;9.35;6.07;;;;;;;17.33;66.07;99396.00;4973177;28;20042;-57
2021/06/08 02:17:06;;;;;;;9.25;5.95;;;;;;;17.29;66.32;99389.28;4974770;28;20031;-59
2021/06/08 02:19:35;;;;;;;8.57;6.15;;;;;;;17.26;66.14;99386.94;4978084;28;20050;-57
2021/06/08 02:22:05;;;;;;;7.32;6.15;;;;;;;16.74;66.15;99301.81;4971635;28;20037;-57
2021/06/08 02:24:31;;;;;;;7.47;5.82;;;;;;;17.27;66.03;99383.19;4971580;28;20064;-56
2021/06/08 02:27:03;;;;;;;6.43;5.72;;;;;;;17.25;65.92;99379.84;4970865;28;20046;-59
2021/06/08 02:29:31;;;;;;;6.65;5.68;;;;;;;17.36;65.96;99387.56;4984191;28;20044;-59
2021/06/08 02:31:57;;;;;;;9.25;6.32;;;;;;;17.45;66.05;99382.09;4982972;28;20046;-54
2021/06/08 02:34:24;;;;;;;11.50;6.18;;;;;;;17.61;65.32;99384.69;4980199;28;20121;-58
2021/06/08 02:36:52;;;;;;;8.10;5.90;;;;;;;17.86;64.31;99387.19;4973609;28;20505;-56
2021/06/08 02:39:18;;;;;;;9.63;6.03;;;;;;;17.97;63.85;99382.34;4972291;28;20034;-58
2021/06/08 02:41:44;;;;;;;7.07;5.65;;;;;;;18.25;63.09;99377.22;4974093;28;20030;-57
2021/06/08 02:44:12;;;;;;;6.35;5.70;;;;;;;18.52;62.43;99372.16;4983465;28;20034;-58
2021/06/08 02:46:39;;;;;;;7.30;6.15;;;;;;;18.85;61.42;99384.50;4989095;28;20034;-55
2021/06/08 02:49:06;;;;;;;6.25;5.65;;;;;;;19.11;60.76;99388.59;4979204;28;20150;-56
2021/06/08 02:51:32;;;;;;;5.70;5.20;;;;;;;19.12;59.92;99346.88;4975413;28;20046;-57
2021/06/08 02:53:58;;;;;;;8.77;5.55;;;;;;;19.66;59.00;99391.72;4982977;28;20077;-59
2021/06/08 02:56:24;;;;;;;7.50;5.53;;;;;;;19.75;58.19;99385.09;4971635;28;20352;-58
2021/06/08 02:58:51;;;;;;;6.30;5.70;;;;;;;19.65;57.45;99347.41;4971166;28;20597;-56
2021/06/08 03:01:19;;;;;;;8.80;5.75;;;;;;;20.13;56.89;99392.13;4976832;28;20608;-57
2021/06/08 03:03:48;;;;;;;9.52;6.28;;;;;;;20.16;56.52;99386.28;4971194;28;20402;-57
2021/06/08 03:06:19;;;;;;;7.35;6.22;;;;;;;20.36;55.43;99388.31;4970919;28;20519;-53
2021/06/08 03:08:55;;;;;;;8.50;6.30;;;;;;;20.25;56.36;99384.25;4976529;28;20034;-58
2021/06/08 03:11:29;;;;;;;9.95;6.30;;;;;;;20.15;56.36;99387.34;4971357;28;20101;-57
2021/06/08 03:13:56;;;;;;;8.25;6.55;;;;;;;20.08;56.63;99400.84;4975868;28;20072;-59
2021/06/08 03:16:27;;;;;;;10.43;6.57;;;;;;;19.63;56.73;99322.31;4980682;28;20058;-55
2021/06/08 03:18:57;;;;;;;12.20;6.93;;;;;;;20.16;56.29;99401.78;4974567;28;20027;-55
2021/06/08 03:21:33;;;;;;;8.77;6.63;;;;;;;20.21;56.36;99389.25;4971091;28;20038;-59
2021/06/08 03:24:02;;;;;;;8.45;6.85;;;;;;;20.32;56.23;99395.19;4976073;28;20070;-56
2021/06/08 03:26:31;;;;;;;8.82;6.85;;;;;;;20.36;56.14;99396.47;4984366;28;20041;-59
2021/06/08 03:29:00;;;;;;;8.80;7.40;;;;;;;20.37;55.82;99392.72;4973514;28;20056;-58
2021/06/08 03:31:26;;;;;;;10.27;7.55;;;;;;;20.33;55.83;99396.88;4950929;28;20072;-57
2021/06/08 03:33:54;;;;;;;9.43;7.28;;;;;;;19.98;55.98;99327.00;4959152;28;20031;-57
2021/06/08 03:36:21;;;;;;;10.05;7.38;;;;;;;20.32;55.59;99368.84;4970595;28;20399;-55
2021/06/08 03:38:48;;;;;;;19.30;11.30;;;;;;;20.19;55.78;99331.53;4970372;28;20042;-56
2021/06/08 03:41:15;;;;;;;14.90;9.02;;;;;;;20.64;55.52;99393.72;4969244;28;20030;-54
2021/06/08 03:43:41;;;;;;;9.82;7.70;;;;;;;20.78;54.99;99391.06;4971638;28;20501;-57
2021/06/08 03:46:07;;;;;;;9.98;7.18;;;;;;;20.91;54.36;99387.59;5001883;28;20091;-55
2021/06/08 03:48:33;;;;;;;7.95;7.03;;;;;;;21.08;53.70;99397.09;4970758;28;20026;-57
2021/06/08 03:50:58;;;;;;;10.68;7.25;;;;;;;21.23;53.37;99396.13;4971019;28;20058;-57
2021/06/08 03:53:25;;;;;;;7.57;6.80;;;;;;;21.10;52.65;99341.63;4955137;28;20101;-57
2021/06/08 03:55:51;;;;;;;10.60;7.03;;;;;;;21.63;51.88;99392.66;4970201;28;20030;-58
2021/06/08 03:58:19;;;;;;;8.23;6.70;;;;;;;21.89;51.40;99400.03;4970812;28;20093;-54
2021/06/08 04:00:47;;;;;;;11.95;6.63;;;;;;;22.39;50.34;99406.91;4970780;28;20391;-56
2021/06/08 04:03:14;;;;;;;11.13;6.65;;;;;;;22.72;49.12;99400.59;4970405;28;20069;-53
2021/06/08 04:05:40;;;;;;;11.55;6.72;;;;;;;23.02;48.23;99388.31;4970791;28;20126;-56
2021/06/08 04:08:09;;;;;;;9.02;6.28;;;;;;;23.28;47.58;99397.47;4970324;28;20130;-57
2021/06/08 04:10:35;;;;;;;10.57;7.28;;;;;;;23.28;47.45;99384.66;4969136;28;20031;-57
2021/06/08 04:13:03;;;;;;;7.28;6.57;;;;;;;23.21;47.29;99400.22;4975702;28;20061;-57
2021/06/08 04:15:29;;;;;;;8.18;7.07;;;;;;;23.21;47.70;99401.03;4967341;28;20427;-58
2021/06/08 04:17:55;;;;;;;10.52;7.45;;;;;;;23.28;47.91;99402.94;4978777;28;20041;-55
2021/06/08 04:20:21;;;;;;;9.60;7.90;;;;;;;22.88;47.89;99341.97;4984740;28;20038;-56
2021/06/08 04:22:47;;;;;;;10.25;7.15;;;;;;;23.12;47.85;99387.84;4969808;28;20085;-59
2021/06/08 04:25:17;;;;;;;10.95;7.97;;;;;;;23.18;48.00;99420.59;4969590;28;20066;-58
2021/06/08 04:27:43;;;;;;;11.43;8.00;;;;;;;23.07;48.37;99413.91;4970014;28;20085;-56
2021/06/08 04:30:10;;;;;;;13.07;8.95;;;;;;;22.93;49.22;99396.75;4970202;28;20038;-54
2021/06/08 04:32:36;;;;;;;10.95;7.57;;;;;;;22.88;49.23;99412.09;4969991;28;20074;-57
2021/06/08 04:35:04;;;;;;;11.43;8.45;;;;;;;22.78;48.54;99402.47;4969484;28;20149;-57
2021/06/08 04:37:30;;;;;;;9.90;7.78;;;;;;;22.80;48.90;99411.28;4970120;28;20045;-58
2021/06/08 04:39:55;;;;;;;10.15;7.55;;;;;;;22.91;48.64;99417.13;4968499;28;20133;-54
2021/06/08 04:42:21;;;;;;;10.98;7.93;;;;;;;23.03;48.40;99411.81;4969849;28;20031;-56
2021/06/08 04:44:49;;;;;;;11.77;7.95;;;;;;;23.14;48.37;99416.63;4970290;28;20064;-54
2021/06/08 04:47:22;;;;;;;8.85;7.63;;;;;;;23.22;47.67;99426.47;4969312;28;20070;-57
2021/06/08 04:49:48;;;;;;;9.70;7.32;;;;;;;23.21;48.05;99419.31;4969882;28;20061;-54
2021/06/08 04:52:14;;;;;;;9.93;7.70;;;;;;;23.17;47.49;99416.19;4970024;28;20125;-57
2021/06/08 04:54:41;;;;;;;9.65;7.03;;;;;;;23.23;47.49;99411.75;4968504;28;20043;-55
2021/06/08 04:57:10;;;;;;;7.32;6.10;;;;;;;23.58;46.45;99422.28;4969580;28;20039;-58
2021/06/08 05:00:01;;;;;;;8.48;6.35;;;;;;;23.91;45.18;99421.25;4970277;28;20031;-57
2021/06/08 05:02:40;;;;;;;8.27;5.90;;;;;;;23.76;45.54;99427.03;4969795;28;20039;-56
2021/06/08 05:05:13;;;;;;;7.25;5.78;;;;;;;23.63;45.56;99425.22;4969489;28;20051;-58
2021/06/08 05:07:45;;;;;;;9.32;5.68;;;;;;;23.48;45.79;99427.41;4969687;28;20030;-55
2021/06/08 05:10:13;;;;;;;6.05;5.47;;;;;;;23.31;46.14;99416.16;4969704;28;20039;-57
2021/06/08 05:12:44;;;;;;;6.88;5.50;;;;;;;23.31;45.75;99427.91;4969741;28;20038;-57
2021/06/08 05:15:11;;;;;;;7.40;5.85;;;;;;;22.92;46.61;99414.19;4969424;28;20495;-58
2021/06/08 05:17:42;;;;;;;7.40;5.43;;;;;;;22.72;47.24;99430.63;4969893;28;20054;-56
2021/06/08 05:20:09;;;;;;;6.18;5.57;;;;;;;22.49;47.77;99423.75;4963366;28;20035;-59
2021/06/08 05:22:36;;;;;;;7.35;5.47;;;;;;;22.45;48.12;99435.25;4967368;28;20034;-57
2021/06/08 05:25:02;;;;;;;10.45;6.20;;;;;;;22.26;49.09;99426.84;4971067;28;20183;-56
2021/06/08 05:27:29;;;;;;;9.10;6.35;;;;;;;22.13;49.06;99441.34;4981686;28;20027;-56
2021/06/08 05:29:58;;;;;;;7.65;6.65;;;;;;;21.92;49.44;99431.47;4971856;28;20045;-58
2021/06/08 05:32:24;;;;;;;7.10;5.80;;;;;;;21.80;49.89;99433.97;4980261;28;20910;-56
2021/06/08 05:34:49;;;;;;;8.68;6.15;;;;;;;21.60;49.96;99417.56;4977583;28;20066;-58
2021/06/08 05:37:16;;;;;;;6.80;6.00;;;;;;;21.50;50.18;99413.34;4973500;28;20035;-57
2021/06/08 05:39:42;;;;;;;6.85;5.95;;;;;;;21.56;50.35;99433.47;4966880;28;21373;-53
2021/06/08 05:42:11;;;;;;;6.85;6.10;;;;;;;21.50;50.31;99443.31;4969594;28;20162;-58
2021/06/08 05:44:38;;;;;;;10.00;6.13;;;;;;;21.49;50.79;99438.09;4970863;28;20142;-56
2021/06/08 05:47:06;;;;;;;8.80;5.78;;;;;;;21.46;50.79;99438.47;4973413;28;20041;-58
2021/06/08 05:49:36;;;;;;;7.18;5.75;;;;;;;21.43;51.44;99427.97;4972202;28;20070;-57
2021/06/08 05:52:02;;;;;;;6.20;5.53;;;;;;;21.41;51.40;99430.06;4985485;28;20046;-62
2021/06/08 05:54:29;;;;;;;7.10;5.85;;;;;;;21.27;51.06;99426.47;4972371;28;20441;-58
2021/06/08 05:56:55;;;;;;;12.65;6.15;;;;;;;21.37;51.82;99443.28;4972315;28;20110;-58
2021/06/08 05:59:22;;;;;;;9.52;6.18;;;;;;;21.33;51.53;99429.22;4972517;28;20521;-58
2021/06/08 06:01:49;;;;;;;7.10;5.90;;;;;;;21.32;51.67;99430.28;4981791;28;20037;-53
2021/06/08 06:04:20;;;;;;;11.27;7.07;;;;;;;21.29;52.67;99417.06;4971974;28;20510;-56
2021/06/08 06:06:48;;;;;;;9.63;7.07;;;;;;;21.37;52.04;99435.94;4972449;28;20041;-61
2021/06/08 06:09:16;;;;;;;8.35;6.80;;;;;;;21.35;52.59;99442.66;4972585;28;20039;-60
2021/06/08 06:11:46;;;;;;;10.15;6.93;;;;;;;21.37;52.69;99438.66;4972497;28;20414;-60
2021/06/08 06:14:13;;;;;;;11.63;7.25;;;;;;;21.27;52.86;99424.59;4989651;28;20402;-60
2021/06/08 06:16:45;;;;;;;9.77;6.78;;;;;;;21.32;53.37;99427.53;4970449;28;20038;-61
2021/06/08 06:19:11;;;;;;;13.65;6.90;;;;;;;21.31;53.85;99428.59;4969063;28;20031;-56
2021/06/08 06:21:39;;;;;;;8.95;7.18;;;;;;;21.29;54.47;99446.16;4971491;28;20515;-57
2021/06/08 06:24:06;;;;;;;8.70;6.82;;;;;;;21.17;54.66;99424.97;4952794;28;20034;-61
2021/06/08 06:26:33;;;;;;;12.52;7.47;;;;;;;21.19;55.86;99438.38;4964063;28;20043;-59
2021/06/08 06:28:59;;;;;;;11.35;7.80;;;;;;;21.10;56.88;99431.44;4971580;28;20035;-61
2021/06/08 06:31:26;;;;;;;10.02;8.23;;;;;;;21.13;56.97;99441.91;4972169;28;20157;-60
2021/06/08 06:33:55;;;;;;;11.80;8.32;;;;;;;21.10;58.18;99436.88;4971747;28;20034;-59
2021/06/08 06:36:22;;;;;;;18.33;8.32;;;;;;;21.01;58.56;99430.75;4972126;28;20069;-58
2021/06/08 06:38:50;;;;;;;11.80;8.55;;;;;;;20.95;58.88;99440.56;4966526;28;20057;-59
2021/06/08 06:41:17;;;;;;;9.23;8.00;;;;;;;20.88;60.09;99432.41;4970174;28;20084;-60
2021/06/08 06:43:51;;;;;;;11.63;8.82;;;;;;;20.89;61.46;99446.81;4968967;28;20038;-60
2021/06/08 06:46:17;;;;;;;10.67;8.83;;;;;;;20.85;61.01;99438.22;4970584;28;20145;-64
2021/06/08 06:48:45;;;;;;;11.48;8.60;;;;;;;20.90;61.46;99445.78;4971737;28;20813;-59
2021/06/08 06:51:11;;;;;;;11.98;8.68;;;;;;;21.01;60.51;99437.06;4971197;28;20067;-58
2021/06/08 06:53:37;;;;;;;13.25;9.23;;;;;;;21.16;61.01;99445.09;4971559;28;20125;-60
2021/06/08 06:56:03;;;;;;;14.15;9.55;;;;;;;21.37;59.62;99454.19;4955079;28;20121;-58
2021/06/08 06:58:32;;;;;;;15.55;9.65;;;;;;;21.60;58.94;99445.63;4966690;28;20598;-59
2021/06/08 07:00:57;;;;;;;11.00;8.52;;;;;;;22.03;57.66;99443.66;4968163;28;20613;-60
2021/06/08 07:03:33;;;;;;;12.82;9.23;;;;;;;22.58;56.35;99450.78;4969606;28;20037;-58
2021/06/08 07:05:59;;;;;;;14.63;8.98;;;;;;;23.04;54.75;99447.09;4970141;28;20097;-60
2021/06/08 07:08:26;;;;;;;16.25;10.25;;;;;;;23.47;54.11;99444.88;4971023;28;20498;-61
2021/06/08 07:10:53;;;;;;;18.05;10.13;;;;;;;23.83;52.52;99445.28;4969511;28;20038;-60
2021/06/08 07:13:19;;;;;;;11.93;9.38;;;;;;;24.22;51.38;99435.97;4970211;28;20078;-61
2021/06/08 07:15:46;;;;;;;18.23;9.52;;;;;;;24.81;49.54;99429.31;4970902;28;20077;-59
2021/06/08 07:18:13;;;;;;;14.43;9.65;;;;;;;25.51;47.81;99428.06;4969716;28;20498;-59
2021/06/08 07:20:39;;;;;;;16.48;10.10;;;;;;;26.21;46.29;99438.66;4970145;28;20070;-55
2021/06/08 07:23:07;;;;;;;14.13;10.05;;;;;;;26.85;44.24;99428.88;4970528;28;20058;-60
2021/06/08 07:25:37;;;;;;;17.55;10.57;;;;;;;27.04;43.96;99438.63;4970163;28;20031;-60
2021/06/08 07:28:07;;;;;;;19.10;11.07;;;;;;;27.79;43.03;99435.13;4966737;28;20030;-60
2021/06/08 07:30:35;;;;;;;15.93;10.20;;;;;;;29.65;38.56;99395.59;4969929;28;20121;-60
2021/06/08 07:33:00;;;;;;;14.93;11.23;;;;;;;30.57;37.31;99435.25;4969965;28;20210;-59
2021/06/08 07:35:44;;;;;;;15.68;10.30;;;;;;;30.11;37.72;99435.75;4970390;28;20159;-59
2021/06/08 07:38:16;;;;;;;17.85;10.05;;;;;;;29.04;39.07;99441.50;4969135;28;20038;-58
2021/06/08 07:40:48;;;;;;;15.05;10.52;;;;;;;28.38;40.54;99444.13;4969256;28;20062;-60
2021/06/08 07:43:19;;;;;;;13.07;8.82;;;;;;;27.86;40.60;99444.06;4970286;28;20088;-59
2021/06/08 07:45:51;;;;;;;16.38;7.75;;;;;;;27.08;40.46;99419.72;4969617;28;20089;-60
2021/06/08 07:48:24;;;;;;;9.45;6.78;;;;;;;27.12;40.98;99469.53;4984909;28;20226;-56
2021/06/08 07:50:52;;;;;;;10.48;7.57;;;;;;;27.10;40.75;99455.22;4970224;28;20054;-59
2021/06/08 07:53:19;;;;;;;10.52;7.78;;;;;;;26.98;40.89;99450.56;4967438;28;20156;-60
2021/06/08 07:55:46;;;;;;;12.45;8.68;;;;;;;26.70;41.05;99465.84;4969230;28;20034;-59
2021/06/08 07:58:12;;;;;;;15.55;9.00;;;;;;;27.13;40.72;99443.72;4969095;28;20137;-62
2021/06/08 08:00:38;;;;;;;12.63;8.60;;;;;;;30.10;35.73;99447.91;4966219;28;20045;-59
2021/06/08 08:05:49;;;;;;;13.45;9.10;;;;;;;37.34;24.10;99445.38;4970012;28;20065;-61
2021/06/08 08:08:19;;;;;;;11.98;7.88;;;;;;;39.08;21.59;99442.44;4985211;28;20031;-60
2021/06/08 08:10:46;;;;;;;13.48;9.93;;;;;;;40.80;20.13;99444.16;4969809;28;20447;-61
2021/06/08 08:13:15;;;;;;;12.27;7.65;;;;;;;41.65;18.54;99441.53;4970635;28;20482;-60
2021/06/08 08:15:45;;;;;;;11.00;7.50;;;;;;;41.42;18.18;99439.03;4985150;28;20041;-61
2021/06/08 08:18:11;;;;;;;7.35;6.28;;;;;;;40.81;18.81;99430.97;4968373;28;20051;-60
2021/06/08 08:20:53;;;;;;;7.90;6.50;;;;;;;39.62;19.04;99427.38;4971036;28;20031;-62
2021/06/08 08:23:20;;;;;;;7.35;6.05;;;;;;;38.24;20.98;99434.63;4968791;28;20045;-62
2021/06/08 08:25:47;;;;;;;9.02;6.13;;;;;;;36.87;22.97;99439.06;4970192;28;20053;-63
2021/06/08 08:28:13;;;;;;;9.05;6.32;;;;;;;35.64;24.25;99425.00;4969728;28;20374;-62
2021/06/08 08:30:40;;;;;;;9.38;6.10;;;;;;;34.43;25.38;99425.06;4970336;28;20030;-61
2021/06/08 08:33:06;;;;;;;8.73;5.72;;;;;;;33.14;27.46;99412.91;4970471;28;20450;-60
2021/06/08 08:35:36;;;;;;;13.18;6.15;;;;;;;31.91;29.07;99410.91;4970586;28;20038;-60
2021/06/08 08:38:02;;;;;;;11.00;6.70;;;;;;;30.74;31.61;99422.13;4956027;28;20077;-63
2021/06/08 08:40:29;;;;;;;9.25;7.30;;;;;;;29.73;32.72;99410.84;4970228;28;20042;-64
2021/06/08 08:42:55;;;;;;;11.73;9.32;;;;;;;28.81;33.65;99397.66;4969197;28;20438;-64
2021/06/08 08:45:21;;;;;;;10.70;8.18;;;;;;;27.90;35.79;99423.22;4969278;28;20042;-61
2021/06/08 08:47:47;;;;;;;11.20;8.00;;;;;;;27.33;37.17;99411.16;4969800;28;20031;-61
2021/06/08 08:50:16;;;;;;;15.52;7.60;;;;;;;26.70;37.60;99349.72;4969895;28;20105;-61
2021/06/08 08:52:55;;;;;;;16.60;8.43;;;;;;;26.89;38.57;99405.34;4969944;28;20146;-61
2021/06/08 08:55:25;;;;;;;12.10;6.80;;;;;;;26.74;38.06;99386.59;4969489;28;20038;-57
2021/06/08 08:57:54;;;;;;;10.93;7.50;;;;;;;26.85;38.38;99407.72;4972157;28;20043;-61
2021/06/08 09:00:22;;;;;;;10.63;7.63;;;;;;;26.12;38.48;99328.38;4973890;28;20027;-64
2021/06/08 09:02:53;;;;;;;12.32;7.22;;;;;;;26.14;38.93;99348.19;4973595;28;20037;-63
2021/06/08 09:05:19;;;;;;;17.20;9.30;;;;;;;26.36;39.35;99388.78;4973330;28;20126;-64
2021/06/08 09:07:45;;;;;;;11.98;8.27;;;;;;;26.23;39.76;99374.22;4973720;28;20058;-60
2021/06/08 09:10:13;;;;;;;17.58;9.15;;;;;;;26.49;40.45;99387.69;4973634;28;20471;-62
2021/06/08 09:12:39;;;;;;;14.45;8.30;;;;;;;26.75;39.89;99386.31;4972093;28;20042;-59
2021/06/08 09:15:06;;;;;;;11.75;7.38;;;;;;;26.97;38.96;99365.66;4971690;28;20077;-63
2021/06/08 09:17:32;;;;;;;8.65;6.43;;;;;;;27.32;37.53;99362.78;4973656;28;20056;-60
2021/06/08 09:19:58;;;;;;;10.07;5.43;;;;;;;27.63;36.79;99374.34;4973404;28;20133;-63
2021/06/08 09:22:49;;;;;;;8.40;6.25;;;;;;;27.74;36.13;99378.13;4972593;28;20494;-60
2021/06/08 09:25:38;;;;;;;9.77;6.28;;;;;;;27.23;36.20;99328.50;4972269;28;20557;-62
2021/06/08 09:28:12;;;;;;;10.50;6.05;;;;;;;27.63;36.73;99379.03;4963573;28;20033;-61
2021/06/08 09:30:38;;;;;;;13.77;6.80;;;;;;;27.73;36.73;99367.34;4973393;28;20073;-61
2021/06/08 09:33:18;;;;;;;9.55;6.43;;;;;;;27.86;36.33;99380.78;4972863;28;20042;-62
2021/06/08 09:36:05;;;;;;;10.10;6.20;;;;;;;27.89;36.00;99371.22;4972780;28;20034;-62
2021/06/08 09:38:39;;;;;;;9.35;6.22;;;;;;;27.82;36.86;99360.38;4972968;28;20395;-61
2021/06/08 09:41:22;;;;;;;16.38;5.97;;;;;;;27.66;36.35;99356.53;4972809;28;20546;-63
2021/06/08 09:43:48;;;;;;;10.50;5.68;;;;;;;27.68;36.21;99357.13;4972008;28;20038;-63
2021/06/08 09:46:14;;;;;;;8.30;5.43;;;;;;;27.47;36.09;99342.97;4972415;28;20038;-64
2021/06/08 09:48:58;;;;;;;8.38;5.00;;;;;;;27.47;36.02;99317.38;4987545;28;20031;-57
2021/06/08 09:51:25;;;;;;;7.50;4.50;;;;;;;27.58;35.55;99340.44;4970874;28;20035;-60
2021/06/08 09:53:51;;;;;;;7.40;4.18;;;;;;;27.59;35.11;99342.09;4968855;28;20046;-59
2021/06/08 09:56:19;;;;;;;7.32;5.22;;;;;;;27.35;35.75;99288.06;4971404;28;20058;-60
2021/06/08 09:58:53;;;;;;;6.63;4.72;;;;;;;27.80;35.30;99340.53;4972503;28;20473;-63
2021/06/08 10:01:22;;;;;;;5.38;4.45;;;;;;;27.85;34.87;99335.13;4972633;28;20081;-61
2021/06/08 10:03:51;;;;;;;6.70;4.03;;;;;;;27.87;34.34;99330.19;4971197;28;20045;-64
2021/06/08 10:06:37;;;;;;;5.15;4.10;;;;;;;28.10;34.08;99330.28;4972265;28;20034;-62
2021/06/08 10:09:04;;;;;;;;;;;;;;;28.59;33.36;99324.09;4972068;28;20093;-62
2021/06/08 10:11:32;;;;;;;4.50;3.80;;;;;;;28.46;32.74;99322.53;4972894;28;19921;-61
2021/06/08 10:14:17;;;;;;;4.25;3.70;;;;;;;28.58;32.46;99317.75;4972736;28;20039;-64
2021/06/08 10:16:44;;;;;;;4.07;3.30;;;;;;;28.83;32.55;99321.09;4970695;28;20043;-62
2021/06/08 10:19:10;;;;;;;7.03;3.70;;;;;;;28.99;31.93;99311.94;4972604;28;20058;-61
2021/06/08 10:21:39;;;;;;;6.18;4.78;;;;;;;29.16;32.11;99317.34;4972411;28;20042;-66
2021/06/08 10:24:08;;;;;;;7.38;4.65;;;;;;;29.25;32.14;99317.69;4972213;28;20038;-60
2021/06/08 10:26:35;;;;;;;6.57;5.45;;;;;;;29.01;32.09;99287.69;4972616;28;20138;-61
2021/06/08 10:29:05;;;;;;;5.28;4.78;;;;;;;28.94;32.75;99306.38;4972171;28;20111;-62
2021/06/08 10:31:30;;;;;;;7.13;4.70;;;;;;;28.92;33.11;99280.97;4971793;28;20525;-54
2021/06/08 10:33:57;;;;;;;6.90;4.22;;;;;;;29.06;32.76;99301.53;4971603;28;20026;-62
2021/06/08 10:36:24;;;;;;;7.13;4.53;;;;;;;29.02;31.84;99289.34;4977073;28;20049;-61
2021/06/08 10:38:50;;;;;;;4.25;3.85;;;;;;;29.00;31.04;99296.22;4981610;28;20081;-61
2021/06/08 10:41:16;;;;;;;3.53;2.92;;;;;;;28.91;30.53;99282.06;4972295;28;20034;-64
2021/06/08 10:43:42;;;;;;;3.97;3.58;;;;;;;28.88;30.42;99277.06;4972039;28;20045;-59
2021/06/08 10:46:22;;;;;;;5.22;3.83;;;;;;;28.89;31.49;99271.31;4972377;28;20038;-63
2021/06/08 10:48:50;;;;;;;6.75;3.92;;;;;;;29.05;31.35;99272.31;4970107;28;20332;-62
2021/06/08 10:51:21;;;;;;;4.10;3.75;;;;;;;29.39;30.29;99270.38;4972324;28;20085;-58
2021/06/08 10:53:54;;;;;;;4.03;3.70;;;;;;;29.79;28.93;99258.91;4971785;28;20043;-62
2021/06/08 10:56:26;;;;;;;10.10;4.78;;;;;;;30.15;29.27;99269.34;4971951;28;20541;-60
2021/06/08 10:59:00;;;;;;;4.32;3.92;;;;;;;29.93;29.13;99206.81;4971568;28;20034;-62
2021/06/08 11:01:50;;;;;;;6.90;3.15;;;;;;;30.52;28.03;99275.88;4971849;28;20043;-62
2021/06/08 11:04:19;;;;;;;4.38;2.85;;;;;;;30.45;27.61;99269.75;4961948;28;20035;-61
2021/06/08 11:06:50;;;;;;;3.28;2.97;;;;;;;30.38;27.46;99269.16;4981872;28;20132;-63
2021/06/08 11:09:24;;;;;;;3.92;2.83;;;;;;;30.40;27.42;99272.50;4970891;28;20030;-61
2021/06/08 11:12:08;;;;;;;3.58;3.28;;;;;;;30.35;27.77;99259.47;4973366;28;20034;-63
2021/06/08 11:14:43;;;;;;;6.15;3.45;;;;;;;30.20;28.18;99263.84;4969445;28;20093;-62
2021/06/08 11:17:11;;;;;;;3.75;3.25;;;;;;;30.04;27.74;99240.00;4976510;28;20482;-60
2021/06/08 11:19:53;;;;;;;3.50;3.20;;;;;;;29.85;28.95;99268.00;4972852;28;20447;-60
2021/06/08 11:22:43;;;;;;;3.95;3.55;;;;;;;29.21;30.09;99245.72;4969722;28;20513;-61
2021/06/08 11:25:32;;;;;;;6.10;3.88;;;;;;;29.10;29.99;99274.28;4971587;28;20038;-62
2021/06/08 11:27:58;;;;;;;4.63;3.40;;;;;;;28.13;30.90;99261.78;4976814;28;20044;-61
2021/06/08 11:30:33;;;;;;;5.75;4.78;;;;;;;27.50;33.01;99273.75;4970332;28;20089;-61
2021/06/08 11:33:04;;;;;;;5.97;5.40;;;;;;;27.11;34.98;99279.13;4968669;28;20098;-62
2021/06/08 11:35:35;;;;;;;6.93;5.50;;;;;;;26.89;36.95;99270.75;4969259;28;20035;-61
2021/06/08 11:38:03;;;;;;;7.35;6.05;;;;;;;26.00;38.62;99280.91;4983712;28;20038;-62
2021/06/08 11:40:34;;;;;;;6.45;5.90;;;;;;;25.82;39.54;99296.44;4970309;28;20045;-62